sensor_id;sensor_type;location;lat;lon;timestamp;temperature;humidity
10864;DHT22;5485;37.558;126.950;2023-05-31T00:01:00;25.00;1.00
10864;DHT22;5485;37.558;126.950;2023-05-31T00:03:30;25.10;1.00
10864;DHT22;5485;37.558;126.950;2023-05-31T00:05:56;25.60;1.00
10864;DHT22;5485;37.558;126.950;2023-05-31T00:08:23;26.40;1.00
10864;DHT22;5485;37.558;126.950;2023-05-31T00:10:50;26.60;1.00
10864;DHT22;5485;37.558;126.950;2023-05-31T00:13:17;26.60;1.00
10864;DHT22;5485;37.558;126.950;2023-05-31T00:15:44;26.40;1.00
10864;DHT22;5485;37.558;126.950;2023-05-31T00:18:11;26.50;1.00
10864;DHT22;5485;37.558;126.950;2023-05-31T00:20:38;27.20;1.00
10864;DHT22;5485;37.558;126.950;2023-05-31T00:23:05;28.10;1.00
10864;DHT22;5485;37.558;126.950;2023-05-31T00:25:32;28.60;1.00
10864;DHT22;5485;37.558;126.950;2023-05-31T00:27:58;28.60;1.00
10864;DHT22;5485;37.558;126.950;2023-05-31T00:30:25;28.70;1.00
10864;DHT22;5485;37.558;126.950;2023-05-31T00:32:52;28.90;1.00
10864;DHT22;5485;37.558;126.950;2023-05-31T00:35:19;29.70;1.00
10864;DHT22;5485;37.558;126.950;2023-05-31T00:37:46;30.00;1.00
10864;DHT22;5485;37.558;126.950;2023-05-31T00:40:13;29.10;1.00
10864;DHT22;5485;37.558;126.950;2023-05-31T00:42:40;28.70;1.00
10864;DHT22;5485;37.558;126.950;2023-05-31T00:45:07;28.50;1.00
10864;DHT22;5485;37.558;126.950;2023-05-31T00:47:35;28.70;1.00
10864;DHT22;5485;37.558;126.950;2023-05-31T00:50:04;29.10;1.00
10864;DHT22;5485;37.558;126.950;2023-05-31T00:52:33;29.60;1.00
10864;DHT22;5485;37.558;126.950;2023-05-31T00:55:00;30.00;1.00
10864;DHT22;5485;37.558;126.950;2023-05-31T00:57:28;29.70;1.00
10864;DHT22;5485;37.558;126.950;2023-05-31T00:59:59;30.40;1.00
10864;DHT22;5485;37.558;126.950;2023-05-31T01:02:26;31.10;1.00
10864;DHT22;5485;37.558;126.950;2023-05-31T01:04:53;31.60;1.00
10864;DHT22;5485;37.558;126.950;2023-05-31T01:07:21;31.70;1.00
10864;DHT22;5485;37.558;126.950;2023-05-31T01:09:48;31.80;1.00
10864;DHT22;5485;37.558;126.950;2023-05-31T01:15:23;31.80;1.00
10864;DHT22;5485;37.558;126.950;2023-05-31T01:18:12;32.00;1.00
10864;DHT22;5485;37.558;126.950;2023-05-31T01:20:45;31.80;1.00
10864;DHT22;5485;37.558;126.950;2023-05-31T01:26:37;31.20;1.00
10864;DHT22;5485;37.558;126.950;2023-05-31T01:29:22;31.00;1.00
10864;DHT22;5485;37.558;126.950;2023-05-31T01:31:51;31.50;1.00
10864;DHT22;5485;37.558;126.950;2023-05-31T01:34:19;31.50;1.00
10864;DHT22;5485;37.558;126.950;2023-05-31T01:36:45;31.80;1.00
10864;DHT22;5485;37.558;126.950;2023-05-31T01:39:13;31.80;1.00
10864;DHT22;5485;37.558;126.950;2023-05-31T01:41:44;31.60;1.00
10864;DHT22;5485;37.558;126.950;2023-05-31T01:44:13;31.40;1.00
10864;DHT22;5485;37.558;126.950;2023-05-31T01:46:43;31.00;1.00
10864;DHT22;5485;37.558;126.950;2023-05-31T01:49:10;30.90;1.00
10864;DHT22;5485;37.558;126.950;2023-05-31T01:51:38;31.00;1.00
10864;DHT22;5485;37.558;126.950;2023-05-31T01:54:06;30.90;1.00
10864;DHT22;5485;37.558;126.950;2023-05-31T01:56:34;31.10;1.00
10864;DHT22;5485;37.558;126.950;2023-05-31T01:59:04;31.50;1.00
10864;DHT22;5485;37.558;126.950;2023-05-31T02:01:32;32.00;1.00
10864;DHT22;5485;37.558;126.950;2023-05-31T02:04:00;31.60;1.00
10864;DHT22;5485;37.558;126.950;2023-05-31T02:06:27;31.40;1.00
10864;DHT22;5485;37.558;126.950;2023-05-31T02:08:54;31.50;1.00
10864;DHT22;5485;37.558;126.950;2023-05-31T02:11:21;31.10;1.00
10864;DHT22;5485;37.558;126.950;2023-05-31T02:13:48;31.40;1.00
10864;DHT22;5485;37.558;126.950;2023-05-31T02:16:15;31.70;1.00
10864;DHT22;5485;37.558;126.950;2023-05-31T02:18:42;31.40;1.00
10864;DHT22;5485;37.558;126.950;2023-05-31T02:21:12;31.40;1.00
10864;DHT22;5485;37.558;126.950;2023-05-31T02:23:41;31.40;1.00
10864;DHT22;5485;37.558;126.950;2023-05-31T02:26:08;31.20;1.00
10864;DHT22;5485;37.558;126.950;2023-05-31T02:28:34;31.00;1.00
10864;DHT22;5485;37.558;126.950;2023-05-31T02:31:01;31.20;1.00
10864;DHT22;5485;37.558;126.950;2023-05-31T02:33:28;31.30;1.00
10864;DHT22;5485;37.558;126.950;2023-05-31T02:35:56;31.30;1.00
10864;DHT22;5485;37.558;126.950;2023-05-31T02:38:25;31.20;1.00
10864;DHT22;5485;37.558;126.950;2023-05-31T02:40:52;30.90;1.00
10864;DHT22;5485;37.558;126.950;2023-05-31T02:43:19;30.50;1.00
10864;DHT22;5485;37.558;126.950;2023-05-31T02:45:46;30.30;1.00
10864;DHT22;5485;37.558;126.950;2023-05-31T02:48:13;30.00;1.00
10864;DHT22;5485;37.558;126.950;2023-05-31T02:50:40;30.00;1.00
10864;DHT22;5485;37.558;126.950;2023-05-31T02:53:07;30.10;1.00
10864;DHT22;5485;37.558;126.950;2023-05-31T02:55:35;30.10;1.00
10864;DHT22;5485;37.558;126.950;2023-05-31T02:58:03;30.50;1.00
10864;DHT22;5485;37.558;126.950;2023-05-31T03:00:30;30.70;1.00
10864;DHT22;5485;37.558;126.950;2023-05-31T03:02:57;31.00;1.00
10864;DHT22;5485;37.558;126.950;2023-05-31T03:05:24;30.80;1.00
10864;DHT22;5485;37.558;126.950;2023-05-31T03:07:52;30.40;1.00
10864;DHT22;5485;37.558;126.950;2023-05-31T03:10:22;29.90;1.00
10864;DHT22;5485;37.558;126.950;2023-05-31T03:12:48;29.80;1.00
10864;DHT22;5485;37.558;126.950;2023-05-31T03:15:16;29.70;1.00
10864;DHT22;5485;37.558;126.950;2023-05-31T03:17:42;29.70;1.00
10864;DHT22;5485;37.558;126.950;2023-05-31T03:20:10;29.50;1.00
10864;DHT22;5485;37.558;126.950;2023-05-31T03:22:37;29.30;1.00
10864;DHT22;5485;37.558;126.950;2023-05-31T03:25:05;29.20;1.00
10864;DHT22;5485;37.558;126.950;2023-05-31T03:27:32;28.90;1.00
10864;DHT22;5485;37.558;126.950;2023-05-31T03:29:59;28.90;1.00
10864;DHT22;5485;37.558;126.950;2023-05-31T03:32:26;28.90;1.00
10864;DHT22;5485;37.558;126.950;2023-05-31T03:34:55;28.50;1.00
10864;DHT22;5485;37.558;126.950;2023-05-31T03:37:22;28.30;1.00
10864;DHT22;5485;37.558;126.950;2023-05-31T03:39:49;28.30;1.00
10864;DHT22;5485;37.558;126.950;2023-05-31T03:42:19;28.50;1.00
10864;DHT22;5485;37.558;126.950;2023-05-31T03:44:46;28.50;1.00
10864;DHT22;5485;37.558;126.950;2023-05-31T03:47:13;28.60;1.00
10864;DHT22;5485;37.558;126.950;2023-05-31T03:49:39;28.80;1.00
10864;DHT22;5485;37.558;126.950;2023-05-31T03:52:06;28.50;1.00
10864;DHT22;5485;37.558;126.950;2023-05-31T03:54:36;28.40;1.00
10864;DHT22;5485;37.558;126.950;2023-05-31T03:57:03;28.40;1.00
10864;DHT22;5485;37.558;126.950;2023-05-31T03:59:34;28.40;1.00
10864;DHT22;5485;37.558;126.950;2023-05-31T04:02:03;28.40;1.00
10864;DHT22;5485;37.558;126.950;2023-05-31T04:04:30;28.70;1.00
10864;DHT22;5485;37.558;126.950;2023-05-31T04:06:57;28.80;1.00
10864;DHT22;5485;37.558;126.950;2023-05-31T04:09:24;29.00;1.00
10864;DHT22;5485;37.558;126.950;2023-05-31T04:11:51;29.30;1.00
10864;DHT22;5485;37.558;126.950;2023-05-31T04:14:18;29.00;1.00
10864;DHT22;5485;37.558;126.950;2023-05-31T04:16:47;29.00;1.00
10864;DHT22;5485;37.558;126.950;2023-05-31T04:19:14;28.80;1.00
10864;DHT22;5485;37.558;126.950;2023-05-31T04:21:41;29.00;1.00
10864;DHT22;5485;37.558;126.950;2023-05-31T04:24:10;29.20;1.00
10864;DHT22;5485;37.558;126.950;2023-05-31T04:26:37;29.20;1.00
10864;DHT22;5485;37.558;126.950;2023-05-31T04:29:04;28.90;1.00
10864;DHT22;5485;37.558;126.950;2023-05-31T04:31:31;28.50;1.00
10864;DHT22;5485;37.558;126.950;2023-05-31T04:34:02;28.10;1.00
10864;DHT22;5485;37.558;126.950;2023-05-31T04:36:31;28.40;1.00
10864;DHT22;5485;37.558;126.950;2023-05-31T04:39:05;28.60;1.00
10864;DHT22;5485;37.558;126.950;2023-05-31T04:41:38;28.50;1.00
10864;DHT22;5485;37.558;126.950;2023-05-31T04:44:05;28.40;1.00
10864;DHT22;5485;37.558;126.950;2023-05-31T04:46:32;28.50;1.00
10864;DHT22;5485;37.558;126.950;2023-05-31T04:48:59;28.40;1.00
10864;DHT22;5485;37.558;126.950;2023-05-31T04:51:27;28.60;1.00
10864;DHT22;5485;37.558;126.950;2023-05-31T04:53:54;28.30;1.00
10864;DHT22;5485;37.558;126.950;2023-05-31T04:56:24;28.10;1.00
10864;DHT22;5485;37.558;126.950;2023-05-31T04:58:51;28.40;1.00
10864;DHT22;5485;37.558;126.950;2023-05-31T05:01:18;28.40;1.00
10864;DHT22;5485;37.558;126.950;2023-05-31T05:03:45;28.50;1.00
10864;DHT22;5485;37.558;126.950;2023-05-31T05:06:14;28.60;1.00
10864;DHT22;5485;37.558;126.950;2023-05-31T05:08:44;28.80;1.00
10864;DHT22;5485;37.558;126.950;2023-05-31T05:11:12;28.60;1.00
10864;DHT22;5485;37.558;126.950;2023-05-31T05:13:40;28.60;1.00
10864;DHT22;5485;37.558;126.950;2023-05-31T05:16:07;28.70;1.00
10864;DHT22;5485;37.558;126.950;2023-05-31T05:18:34;28.90;1.00
10864;DHT22;5485;37.558;126.950;2023-05-31T05:21:01;28.90;1.00
10864;DHT22;5485;37.558;126.950;2023-05-31T05:23:28;28.80;1.00
10864;DHT22;5485;37.558;126.950;2023-05-31T05:25:55;28.70;1.00
10864;DHT22;5485;37.558;126.950;2023-05-31T05:28:22;28.90;1.00
10864;DHT22;5485;37.558;126.950;2023-05-31T05:30:49;28.70;1.00
10864;DHT22;5485;37.558;126.950;2023-05-31T05:33:16;28.70;1.00
10864;DHT22;5485;37.558;126.950;2023-05-31T05:35:43;28.90;1.00
10864;DHT22;5485;37.558;126.950;2023-05-31T05:38:10;28.80;1.00
10864;DHT22;5485;37.558;126.950;2023-05-31T05:40:37;28.90;1.00
10864;DHT22;5485;37.558;126.950;2023-05-31T05:43:05;28.90;1.00
10864;DHT22;5485;37.558;126.950;2023-05-31T05:45:32;28.90;1.00
10864;DHT22;5485;37.558;126.950;2023-05-31T05:47:59;28.90;1.00
10864;DHT22;5485;37.558;126.950;2023-05-31T05:50:26;28.80;1.00
10864;DHT22;5485;37.558;126.950;2023-05-31T05:52:52;28.80;1.00
10864;DHT22;5485;37.558;126.950;2023-05-31T05:55:19;28.90;1.00
10864;DHT22;5485;37.558;126.950;2023-05-31T05:57:47;29.00;1.00
10864;DHT22;5485;37.558;126.950;2023-05-31T06:00:14;29.00;1.00
10864;DHT22;5485;37.558;126.950;2023-05-31T06:02:41;29.10;1.00
10864;DHT22;5485;37.558;126.950;2023-05-31T06:05:09;29.00;1.00
10864;DHT22;5485;37.558;126.950;2023-05-31T06:07:36;28.50;1.00
10864;DHT22;5485;37.558;126.950;2023-05-31T06:10:03;28.60;1.00
10864;DHT22;5485;37.558;126.950;2023-05-31T06:12:30;28.80;1.00
10864;DHT22;5485;37.558;126.950;2023-05-31T06:14:56;28.60;1.00
10864;DHT22;5485;37.558;126.950;2023-05-31T06:17:23;28.60;1.00
10864;DHT22;5485;37.558;126.950;2023-05-31T06:19:50;28.60;1.00
10864;DHT22;5485;37.558;126.950;2023-05-31T06:22:17;28.90;1.00
10864;DHT22;5485;37.558;126.950;2023-05-31T06:24:44;28.60;1.00
10864;DHT22;5485;37.558;126.950;2023-05-31T06:27:12;28.80;1.00
10864;DHT22;5485;37.558;126.950;2023-05-31T06:29:40;29.00;1.00
10864;DHT22;5485;37.558;126.950;2023-05-31T06:32:10;29.20;1.00
10864;DHT22;5485;37.558;126.950;2023-05-31T06:34:37;29.00;1.00
10864;DHT22;5485;37.558;126.950;2023-05-31T06:37:05;29.20;1.00
10864;DHT22;5485;37.558;126.950;2023-05-31T06:39:33;29.30;1.00
10864;DHT22;5485;37.558;126.950;2023-05-31T06:42:03;29.20;1.00
10864;DHT22;5485;37.558;126.950;2023-05-31T06:44:31;29.00;1.00
10864;DHT22;5485;37.558;126.950;2023-05-31T06:46:58;29.00;1.00
10864;DHT22;5485;37.558;126.950;2023-05-31T06:49:25;28.80;1.00
10864;DHT22;5485;37.558;126.950;2023-05-31T06:52:03;28.80;1.00
10864;DHT22;5485;37.558;126.950;2023-05-31T06:54:35;28.60;1.00
10864;DHT22;5485;37.558;126.950;2023-05-31T06:57:05;28.00;1.00
10864;DHT22;5485;37.558;126.950;2023-05-31T06:59:34;27.80;1.00
10864;DHT22;5485;37.558;126.950;2023-05-31T07:02:02;27.70;1.00
10864;DHT22;5485;37.558;126.950;2023-05-31T07:04:28;27.80;1.00
10864;DHT22;5485;37.558;126.950;2023-05-31T07:06:55;27.90;1.00
10864;DHT22;5485;37.558;126.950;2023-05-31T07:09:22;27.70;1.00
10864;DHT22;5485;37.558;126.950;2023-05-31T07:11:49;27.80;1.00
10864;DHT22;5485;37.558;126.950;2023-05-31T07:14:16;27.70;1.00
10864;DHT22;5485;37.558;126.950;2023-05-31T07:16:43;27.90;1.00
10864;DHT22;5485;37.558;126.950;2023-05-31T07:19:10;28.00;1.00
10864;DHT22;5485;37.558;126.950;2023-05-31T07:21:37;27.90;1.00
10864;DHT22;5485;37.558;126.950;2023-05-31T07:24:04;28.10;1.00
10864;DHT22;5485;37.558;126.950;2023-05-31T07:26:30;28.30;1.00
10864;DHT22;5485;37.558;126.950;2023-05-31T07:28:57;28.20;1.00
10864;DHT22;5485;37.558;126.950;2023-05-31T07:31:24;28.30;1.00
10864;DHT22;5485;37.558;126.950;2023-05-31T07:33:52;28.40;1.00
10864;DHT22;5485;37.558;126.950;2023-05-31T07:36:19;28.50;1.00
10864;DHT22;5485;37.558;126.950;2023-05-31T07:38:45;28.50;1.00
10864;DHT22;5485;37.558;126.950;2023-05-31T07:41:14;28.30;1.00
10864;DHT22;5485;37.558;126.950;2023-05-31T07:43:42;28.30;1.00
10864;DHT22;5485;37.558;126.950;2023-05-31T07:46:10;28.10;1.00
10864;DHT22;5485;37.558;126.950;2023-05-31T07:48:40;27.80;1.00
10864;DHT22;5485;37.558;126.950;2023-05-31T07:51:07;27.80;1.00
10864;DHT22;5485;37.558;126.950;2023-05-31T07:53:34;28.10;1.00
10864;DHT22;5485;37.558;126.950;2023-05-31T07:56:03;28.30;1.00
10864;DHT22;5485;37.558;126.950;2023-05-31T07:58:30;28.60;1.00
10864;DHT22;5485;37.558;126.950;2023-05-31T08:00:58;28.60;1.00
10864;DHT22;5485;37.558;126.950;2023-05-31T08:03:24;28.50;1.00
10864;DHT22;5485;37.558;126.950;2023-05-31T08:05:52;28.70;1.00
10864;DHT22;5485;37.558;126.950;2023-05-31T08:08:19;28.60;1.00
10864;DHT22;5485;37.558;126.950;2023-05-31T08:10:46;28.40;1.00
10864;DHT22;5485;37.558;126.950;2023-05-31T08:13:13;28.20;1.00
10864;DHT22;5485;37.558;126.950;2023-05-31T08:15:40;28.10;1.00
10864;DHT22;5485;37.558;126.950;2023-05-31T08:18:07;28.10;1.00
10864;DHT22;5485;37.558;126.950;2023-05-31T08:20:34;27.60;1.00
10864;DHT22;5485;37.558;126.950;2023-05-31T08:23:01;27.30;1.00
10864;DHT22;5485;37.558;126.950;2023-05-31T08:25:31;27.20;1.00
10864;DHT22;5485;37.558;126.950;2023-05-31T08:27:58;27.30;1.00
10864;DHT22;5485;37.558;126.950;2023-05-31T08:30:25;27.00;1.00
10864;DHT22;5485;37.558;126.950;2023-05-31T08:32:52;27.10;1.00
10864;DHT22;5485;37.558;126.950;2023-05-31T08:35:19;27.10;1.00
10864;DHT22;5485;37.558;126.950;2023-05-31T08:37:46;27.00;1.00
10864;DHT22;5485;37.558;126.950;2023-05-31T08:40:13;26.80;1.00
10864;DHT22;5485;37.558;126.950;2023-05-31T08:42:55;26.80;1.00
10864;DHT22;5485;37.558;126.950;2023-05-31T08:45:22;26.80;1.00
10864;DHT22;5485;37.558;126.950;2023-05-31T08:47:56;26.90;1.00
10864;DHT22;5485;37.558;126.950;2023-05-31T08:50:26;26.70;1.00
10864;DHT22;5485;37.558;126.950;2023-05-31T08:52:56;26.70;1.00
10864;DHT22;5485;37.558;126.950;2023-05-31T08:55:24;26.60;1.00
10864;DHT22;5485;37.558;126.950;2023-05-31T08:57:52;26.50;1.00
10864;DHT22;5485;37.558;126.950;2023-05-31T09:00:20;26.50;1.00
10864;DHT22;5485;37.558;126.950;2023-05-31T09:02:52;26.40;1.00
10864;DHT22;5485;37.558;126.950;2023-05-31T09:05:19;26.30;1.00
10864;DHT22;5485;37.558;126.950;2023-05-31T09:07:46;26.20;1.00
10864;DHT22;5485;37.558;126.950;2023-05-31T09:10:16;26.20;1.00
10864;DHT22;5485;37.558;126.950;2023-05-31T09:12:45;26.10;1.00
10864;DHT22;5485;37.558;126.950;2023-05-31T09:15:13;26.00;1.00
10864;DHT22;5485;37.558;126.950;2023-05-31T09:17:44;25.90;1.00
10864;DHT22;5485;37.558;126.950;2023-05-31T09:20:15;25.70;1.00
10864;DHT22;5485;37.558;126.950;2023-05-31T09:22:46;25.40;1.00
10864;DHT22;5485;37.558;126.950;2023-05-31T09:25:13;25.20;1.00
10864;DHT22;5485;37.558;126.950;2023-05-31T09:27:41;24.90;1.00
10864;DHT22;5485;37.558;126.950;2023-05-31T09:30:12;24.80;1.00
10864;DHT22;5485;37.558;126.950;2023-05-31T09:32:39;24.90;1.00
10864;DHT22;5485;37.558;126.950;2023-05-31T09:35:16;25.00;1.00
10864;DHT22;5485;37.558;126.950;2023-05-31T09:37:45;24.90;1.00
10864;DHT22;5485;37.558;126.950;2023-05-31T09:40:29;25.00;1.00
10864;DHT22;5485;37.558;126.950;2023-05-31T09:42:56;24.90;1.00
10864;DHT22;5485;37.558;126.950;2023-05-31T09:45:23;24.90;1.00
10864;DHT22;5485;37.558;126.950;2023-05-31T09:47:51;24.90;1.00
10864;DHT22;5485;37.558;126.950;2023-05-31T09:50:20;24.90;1.00
10864;DHT22;5485;37.558;126.950;2023-05-31T09:52:50;24.80;1.00
10864;DHT22;5485;37.558;126.950;2023-05-31T09:55:21;24.80;1.00
10864;DHT22;5485;37.558;126.950;2023-05-31T09:57:51;24.70;1.00
10864;DHT22;5485;37.558;126.950;2023-05-31T10:00:19;24.70;1.00
10864;DHT22;5485;37.558;126.950;2023-05-31T10:02:52;24.60;1.00
10864;DHT22;5485;37.558;126.950;2023-05-31T10:05:24;24.50;1.00
10864;DHT22;5485;37.558;126.950;2023-05-31T10:07:52;24.60;1.00
10864;DHT22;5485;37.558;126.950;2023-05-31T10:10:19;24.50;1.00
10864;DHT22;5485;37.558;126.950;2023-05-31T10:12:51;24.40;1.00
10864;DHT22;5485;37.558;126.950;2023-05-31T10:15:23;24.50;1.00
10864;DHT22;5485;37.558;126.950;2023-05-31T10:20:51;24.30;1.00
10864;DHT22;5485;37.558;126.950;2023-05-31T10:23:25;24.20;1.00
10864;DHT22;5485;37.558;126.950;2023-05-31T10:26:15;24.10;1.00
10864;DHT22;5485;37.558;126.950;2023-05-31T10:31:31;23.70;1.00
10864;DHT22;5485;37.558;126.950;2023-05-31T10:34:21;23.60;1.00
10864;DHT22;5485;37.558;126.950;2023-05-31T10:36:50;23.50;1.00
10864;DHT22;5485;37.558;126.950;2023-05-31T10:39:35;23.30;1.00
10864;DHT22;5485;37.558;126.950;2023-05-31T10:43:00;23.20;1.00
10864;DHT22;5485;37.558;126.950;2023-05-31T10:45:23;23.10;1.00
10864;DHT22;5485;37.558;126.950;2023-05-31T10:50:23;23.10;1.00
10864;DHT22;5485;37.558;126.950;2023-05-31T10:52:51;23.10;1.00
10864;DHT22;5485;37.558;126.950;2023-05-31T10:55:27;23.00;1.00
10864;DHT22;5485;37.558;126.950;2023-05-31T10:57:55;22.90;1.00
10864;DHT22;5485;37.558;126.950;2023-05-31T11:00:23;22.90;1.00
10864;DHT22;5485;37.558;126.950;2023-05-31T11:02:52;22.90;1.00
10864;DHT22;5485;37.558;126.950;2023-05-31T11:05:22;22.80;1.00
10864;DHT22;5485;37.558;126.950;2023-05-31T11:07:52;22.80;1.00
10864;DHT22;5485;37.558;126.950;2023-05-31T11:10:31;22.90;1.00
10864;DHT22;5485;37.558;126.950;2023-05-31T11:13:03;22.80;1.00
10864;DHT22;5485;37.558;126.950;2023-05-31T11:15:41;22.80;1.00
10864;DHT22;5485;37.558;126.950;2023-05-31T11:18:10;22.80;1.00
10864;DHT22;5485;37.558;126.950;2023-05-31T11:20:39;22.80;1.00
10864;DHT22;5485;37.558;126.950;2023-05-31T11:23:26;22.70;1.00
10864;DHT22;5485;37.558;126.950;2023-05-31T11:26:16;22.70;1.00
10864;DHT22;5485;37.558;126.950;2023-05-31T11:29:02;22.60;1.00
10864;DHT22;5485;37.558;126.950;2023-05-31T11:34:34;22.40;1.00
10864;DHT22;5485;37.558;126.950;2023-05-31T11:37:03;22.40;1.00
10864;DHT22;5485;37.558;126.950;2023-05-31T11:39:30;22.30;1.00
10864;DHT22;5485;37.558;126.950;2023-05-31T11:41:58;22.30;1.00
10864;DHT22;5485;37.558;126.950;2023-05-31T11:44:29;22.20;1.00
10864;DHT22;5485;37.558;126.950;2023-05-31T11:47:03;22.20;1.00
10864;DHT22;5485;37.558;126.950;2023-05-31T11:49:31;22.20;1.00
10864;DHT22;5485;37.558;126.950;2023-05-31T11:52:00;22.20;1.00
10864;DHT22;5485;37.558;126.950;2023-05-31T11:54:29;22.10;1.00
10864;DHT22;5485;37.558;126.950;2023-05-31T11:57:06;22.20;1.00
10864;DHT22;5485;37.558;126.950;2023-05-31T11:59:37;22.10;1.00
10864;DHT22;5485;37.558;126.950;2023-05-31T12:02:06;22.10;1.00
10864;DHT22;5485;37.558;126.950;2023-05-31T12:04:39;22.10;1.00
10864;DHT22;5485;37.558;126.950;2023-05-31T12:07:09;22.10;1.00
10864;DHT22;5485;37.558;126.950;2023-05-31T12:09:36;22.10;1.00
10864;DHT22;5485;37.558;126.950;2023-05-31T12:12:05;22.10;1.00
10864;DHT22;5485;37.558;126.950;2023-05-31T12:14:32;22.10;1.00
10864;DHT22;5485;37.558;126.950;2023-05-31T12:17:06;22.00;1.00
10864;DHT22;5485;37.558;126.950;2023-05-31T12:19:35;22.00;1.00
10864;DHT22;5485;37.558;126.950;2023-05-31T12:22:02;22.00;1.00
10864;DHT22;5485;37.558;126.950;2023-05-31T12:24:29;22.00;1.00
10864;DHT22;5485;37.558;126.950;2023-05-31T12:26:56;22.00;1.00
10864;DHT22;5485;37.558;126.950;2023-05-31T12:29:31;22.00;1.00
10864;DHT22;5485;37.558;126.950;2023-05-31T12:32:05;22.00;1.00
10864;DHT22;5485;37.558;126.950;2023-05-31T12:34:36;22.00;1.00
10864;DHT22;5485;37.558;126.950;2023-05-31T12:37:08;21.90;1.00
10864;DHT22;5485;37.558;126.950;2023-05-31T12:39:35;21.90;1.00
10864;DHT22;5485;37.558;126.950;2023-05-31T12:42:04;21.90;1.00
10864;DHT22;5485;37.558;126.950;2023-05-31T12:44:32;21.90;1.00
10864;DHT22;5485;37.558;126.950;2023-05-31T12:47:02;21.90;1.00
10864;DHT22;5485;37.558;126.950;2023-05-31T12:49:32;21.90;1.00
10864;DHT22;5485;37.558;126.950;2023-05-31T12:52:09;21.80;1.00
10864;DHT22;5485;37.558;126.950;2023-05-31T12:54:38;21.90;1.00
10864;DHT22;5485;37.558;126.950;2023-05-31T12:57:07;21.80;1.00
10864;DHT22;5485;37.558;126.950;2023-05-31T12:59:36;21.80;1.00
10864;DHT22;5485;37.558;126.950;2023-05-31T13:02:04;21.70;1.00
10864;DHT22;5485;37.558;126.950;2023-05-31T13:04:32;21.70;1.00
10864;DHT22;5485;37.558;126.950;2023-05-31T13:07:01;21.70;1.00
10864;DHT22;5485;37.558;126.950;2023-05-31T13:09:28;21.70;1.00
10864;DHT22;5485;37.558;126.950;2023-05-31T13:11:56;21.60;1.00
10864;DHT22;5485;37.558;126.950;2023-05-31T13:14:23;21.60;1.00
10864;DHT22;5485;37.558;126.950;2023-05-31T13:16:50;21.60;1.00
10864;DHT22;5485;37.558;126.950;2023-05-31T13:19:17;21.60;1.00
10864;DHT22;5485;37.558;126.950;2023-05-31T13:21:43;21.60;1.00
10864;DHT22;5485;37.558;126.950;2023-05-31T13:24:11;21.50;1.00
10864;DHT22;5485;37.558;126.950;2023-05-31T13:26:41;21.50;1.00
10864;DHT22;5485;37.558;126.950;2023-05-31T13:29:08;21.50;1.00
10864;DHT22;5485;37.558;126.950;2023-05-31T13:31:34;21.50;1.00
10864;DHT22;5485;37.558;126.950;2023-05-31T13:34:02;21.40;1.00
10864;DHT22;5485;37.558;126.950;2023-05-31T13:36:28;21.50;1.00
10864;DHT22;5485;37.558;126.950;2023-05-31T13:38:55;21.50;1.00
10864;DHT22;5485;37.558;126.950;2023-05-31T13:41:22;21.40;1.00
10864;DHT22;5485;37.558;126.950;2023-05-31T13:43:52;21.40;1.00
10864;DHT22;5485;37.558;126.950;2023-05-31T13:46:20;21.40;1.00
10864;DHT22;5485;37.558;126.950;2023-05-31T13:48:48;21.50;1.00
10864;DHT22;5485;37.558;126.950;2023-05-31T13:51:15;21.50;1.00
10864;DHT22;5485;37.558;126.950;2023-05-31T13:53:42;21.40;1.00
10864;DHT22;5485;37.558;126.950;2023-05-31T13:56:09;21.40;1.00
10864;DHT22;5485;37.558;126.950;2023-05-31T13:58:37;21.40;1.00
10864;DHT22;5485;37.558;126.950;2023-05-31T14:01:04;21.40;1.00
10864;DHT22;5485;37.558;126.950;2023-05-31T14:03:37;21.40;1.00
10864;DHT22;5485;37.558;126.950;2023-05-31T14:06:07;21.40;1.00
10864;DHT22;5485;37.558;126.950;2023-05-31T14:08:35;21.30;1.00
10864;DHT22;5485;37.558;126.950;2023-05-31T14:11:04;21.30;1.00
10864;DHT22;5485;37.558;126.950;2023-05-31T14:13:32;21.30;1.00
10864;DHT22;5485;37.558;126.950;2023-05-31T14:15:58;21.30;1.00
10864;DHT22;5485;37.558;126.950;2023-05-31T14:18:26;21.30;1.00
10864;DHT22;5485;37.558;126.950;2023-05-31T14:20:56;21.30;1.00
10864;DHT22;5485;37.558;126.950;2023-05-31T14:23:23;21.30;1.00
10864;DHT22;5485;37.558;126.950;2023-05-31T14:25:50;21.20;1.00
10864;DHT22;5485;37.558;126.950;2023-05-31T14:28:17;21.20;1.00
10864;DHT22;5485;37.558;126.950;2023-05-31T14:30:44;21.20;1.00
10864;DHT22;5485;37.558;126.950;2023-05-31T14:33:11;21.10;1.00
10864;DHT22;5485;37.558;126.950;2023-05-31T14:35:38;21.10;1.00
10864;DHT22;5485;37.558;126.950;2023-05-31T14:38:05;21.10;1.00
10864;DHT22;5485;37.558;126.950;2023-05-31T14:40:32;21.10;1.00
10864;DHT22;5485;37.558;126.950;2023-05-31T14:42:58;21.10;1.00
10864;DHT22;5485;37.558;126.950;2023-05-31T14:45:25;21.10;1.00
10864;DHT22;5485;37.558;126.950;2023-05-31T14:47:52;21.10;1.00
10864;DHT22;5485;37.558;126.950;2023-05-31T14:50:19;21.10;1.00
10864;DHT22;5485;37.558;126.950;2023-05-31T14:52:49;21.10;1.00
10864;DHT22;5485;37.558;126.950;2023-05-31T14:55:16;21.10;1.00
10864;DHT22;5485;37.558;126.950;2023-05-31T14:57:43;21.10;1.00
10864;DHT22;5485;37.558;126.950;2023-05-31T15:00:10;21.10;1.00
10864;DHT22;5485;37.558;126.950;2023-05-31T15:02:41;21.10;1.00
10864;DHT22;5485;37.558;126.950;2023-05-31T15:05:09;21.20;1.00
10864;DHT22;5485;37.558;126.950;2023-05-31T15:07:36;21.20;1.00
10864;DHT22;5485;37.558;126.950;2023-05-31T15:10:04;21.20;1.00
10864;DHT22;5485;37.558;126.950;2023-05-31T15:12:31;21.20;1.00
10864;DHT22;5485;37.558;126.950;2023-05-31T15:14:58;21.20;1.00
10864;DHT22;5485;37.558;126.950;2023-05-31T15:17:24;21.20;1.00
10864;DHT22;5485;37.558;126.950;2023-05-31T15:19:52;21.20;1.00
10864;DHT22;5485;37.558;126.950;2023-05-31T15:22:18;21.20;1.00
10864;DHT22;5485;37.558;126.950;2023-05-31T15:24:45;21.30;1.00
10864;DHT22;5485;37.558;126.950;2023-05-31T15:27:13;21.20;1.00
10864;DHT22;5485;37.558;126.950;2023-05-31T15:29:40;21.20;1.00
10864;DHT22;5485;37.558;126.950;2023-05-31T15:32:07;21.20;1.00
10864;DHT22;5485;37.558;126.950;2023-05-31T15:34:35;21.20;1.00
10864;DHT22;5485;37.558;126.950;2023-05-31T15:37:02;21.10;1.00
10864;DHT22;5485;37.558;126.950;2023-05-31T15:39:29;21.20;1.00
10864;DHT22;5485;37.558;126.950;2023-05-31T15:41:56;21.10;1.00
10864;DHT22;5485;37.558;126.950;2023-05-31T15:44:23;21.10;1.00
10864;DHT22;5485;37.558;126.950;2023-05-31T15:46:50;21.20;1.00
10864;DHT22;5485;37.558;126.950;2023-05-31T15:49:17;21.10;1.00
10864;DHT22;5485;37.558;126.950;2023-05-31T15:51:44;21.10;1.00
10864;DHT22;5485;37.558;126.950;2023-05-31T15:54:11;21.00;1.00
10864;DHT22;5485;37.558;126.950;2023-05-31T15:56:38;21.00;1.00